ルズィニエ国際空港(プラハ)の過去48時間の天気

ルズィニエ国際空港(プラハ) (Praha / Ruzyne)

現在時刻: 11/24 18:20 CET (11/24 17:20 UTC) 以下の時間は現地時間です。

過去48時間のMETAR気象情報
時間 風向 風速(m/s) 視程 気温(℃) 湿度(%) 気圧(hPa) 天気現象
24 18:00 静穏 0 400m 0 100 1025 氷霧
24 17:30 静穏 0 400m 0 100 1025 氷霧
24 17:00 東南東 2 500m 0 100 1025 氷霧
24 16:33 2 700m 0 100 1025 氷霧
24 16:00 2 1500m 1 93 1025 散在した霧 もや
24 15:30 2 2000m 1 93 1026 散在した霧 もや
24 15:12 南東 2 2500m 1 93 1026 散在した霧 もや
24 15:00 南東 2 2500m 1 93 1026 もや
24 14:48 南東 2 4000m 1 93 1026 もや
24 14:30 南南東 2 4000m 1 100 1026 もや
24 14:00 南南東 2 3200m 1 100 1026 もや
24 13:30 南南東 2 4500m 1 100 1026 もや
24 13:00 東南東 2 4000m 1 93 1027 もや
24 12:45 南東 2 3500m 1 100 1027 もや
24 12:30 南南東 2 2200m 1 100 1027 もや
24 12:19 不定 1 1600m 1 100 1027 もや
24 12:00 南南東 3 500m 0 100 1027 氷霧
24 11:30 南南東 2 250m -1 100 1028 氷霧
24 11:00 南南東 2 200m -1 100 1028 氷霧
24 10:30 2 250m -2 100 1028 氷霧
24 10:00 2 250m -2 93 1028 氷霧
24 09:43 南南東 3 300m -3 100 1028 氷霧
24 09:30 南南東 2 600m -2 93 1028 氷霧
24 09:05 南南東 2 400m -3 100 1028 氷霧
24 08:39 2 400m -3 100 1029 氷霧
24 08:17 4 500m -3 100 1029 氷霧
24 08:09 3 600m -3 100 1029 氷霧
24 08:00 3 7000m -3 100 1029 周辺で霧
24 07:52 3 8000m -3 100 1029
24 07:30 2 8000m -3 100 1029
24 07:00 3 9000m -2 93 1028
24 06:30 南西 3 8000m -2 93 1028
24 06:00 南南西 3 9000m -2 93 1028
24 05:30 4 9000m -2 100 1028
24 05:00 4 10km以上 -1 93 1028
24 04:30 南南西 4 10km以上 -1 93 1028
24 04:00 南南西 4 10km以上 -1 93 1029
24 03:30 南南西 4 10km以上 -1 93 1029
24 03:00 南南西 4 10km以上 -1 93 1029
24 02:30 南南西 4 10km以上 -2 100 1029
24 02:00 南南西 5 10km以上 0 93 1029
24 01:30 南南西 4 10km以上 -1 100 1030
24 01:00 南西 4 10km以上 -1 93 1030
24 00:30 南西 4 10km以上 -1 93 1030
24 00:00 南西 3 10km以上 0 93 1030
23 23:30 南西 4 10km以上 1 86 1030
23 23:00 南西 3 10km以上 1 93 1030
23 22:30 南西 4 10km以上 0 93 1030
23 22:00 南南西 4 10km以上 1 86 1030
23 21:30 南南西 4 10km以上 1 93 1029
23 21:00 南南西 3 10km以上 1 86 1029
23 20:30 南南西 4 10km以上 1 93 1029
23 20:00 南西 4 10km以上 1 93 1029
23 19:30 西 4 10km以上 2 87 1029
23 19:00 西南西 4 10km以上 2 87 1029
23 18:30 南西 3 10km以上 2 81 1029
23 18:00 西南西 3 10km以上 3 81 1028
23 17:30 西 5 10km以上 2 87 1028
23 17:00 西 3 10km以上 3 81 1028
23 16:30 西 3 10km以上 4 81 1028
23 16:00 西北西 4 10km以上 5 81 1028
23 15:30 西北西 4 10km以上 6 76 1027
23 15:00 西北西 5 10km以上 7 70 1027
23 14:30 西北西 4 10km以上 7 66 1027
23 14:00 西北西 4 10km以上 7 70 1027
23 13:30 西北西 5 10km以上 7 76 1026
23 13:00 西北西 5 10km以上 7 81 1026
23 12:30 西 5 10km以上 7 87 1026
23 12:00 西 5 10km以上 6 93 1026
23 11:30 西南西 6 10km以上 6 87 1026 弱い雨
23 11:17 西南西 5 10km以上 6 87 1026 弱い雨
23 11:00 西南西 5 10km以上 6 87 1026
23 10:30 西南西 5 10km以上 5 93 1026
23 10:00 西南西 6 8000m 5 93 1026 弱い雨
23 09:45 西南西 6 9000m 5 93 1026 弱い雨
23 09:30 南西 6 9000m 5 93 1025
23 09:00 南西 6 9000m 5 93 1025
23 08:30 西南西 6 8000m 5 93 1025 弱い雨
23 08:22 西南西 7 8000m 5 87 1025 弱い雨
23 08:11 西南西 6 9000m 5 93 1025 弱い雨
23 07:30 西南西 6 10km以上 5 87 1024
23 07:00 南西 5 10km以上 5 87 1024
23 06:30 南西 5 10km以上 5 87 1024
23 06:00 南西 5 10km以上 5 87 1024 弱い雨
23 05:30 南南西 5 10km以上 5 87 1024 弱い雨
23 05:00 西南西 5 10km以上 5 87 1024 弱い雨
23 04:55 南西 5 10km以上 5 87 1024 弱い雨
23 04:30 南西 3 10km以上 4 93 1024
23 04:00 南西 3 10km以上 4 93 1024
23 03:30 南西 4 10km以上 4 93 1024
23 03:00 南西 5 10km以上 4 93 1024 弱い雨
23 02:30 南西 5 10km以上 4 93 1024 弱い雨
23 02:00 南西 4 10km以上 4 87 1024
23 01:30 南西 4 10km以上 4 93 1024
23 01:00 南西 5 10km以上 4 87 1024
23 00:30 南西 5 10km以上 5 81 1025
23 00:00 南西 6 10km以上 5 81 1025
22 23:30 南西 4 10km以上 5 81 1025
22 23:00 南西 5 10km以上 5 81 1025
22 22:30 南西 5 10km以上 5 81 1025
22 22:00 南西 4 10km以上 5 81 1025
22 21:30 西南西 4 10km以上 5 81 1025
22 21:00 南西 3 10km以上 5 81 1025
22 20:30 南西 3 10km以上 5 81 1025
22 20:00 南西 4 10km以上 5 81 1025
22 19:30 南西 5 10km以上 5 81 1025
22 19:00 西南西 4 10km以上 5 81 1025
22 18:30 南西 6 10km以上 5 81 1025
LKPR 241700Z 00000KT 0400 R24/0500N FZFG VV001 00/00 Q1025 NOSIG
LKPR 241630Z 00000KT 0400 R24/0500N FZFG VV001 00/00 Q1025 NOSIG
LKPR 241600Z 12003KT 0500 R24/0600D FZFG VV001 00/00 Q1025 NOSIG
LKPR 241533Z 08003KT 0700 R24/0900D FZFG VV001 00/00 Q1025 RMK REG QNH 1021
LKPR 241500Z 10003KT 1500 0700SW R24/P2000N BR BCFG SCT001 OVC002 01/00 Q1025 BECMG 1200 BR
LKPR 241430Z 10004KT 2000 0900SW R24/P2000N BR BCFG SCT001 BKN002 01/00 Q1026 BECMG 1200 BR
LKPR 241412Z 13003KT 2500 0900SW R24/P2000N BR BCFG SCT001 BKN002 01/00 Q1026 RMK REG QNH 1022
LKPR 241400Z 13004KT 2500 BR BKN002 01/00 Q1026 NOSIG
LKPR 241348Z 13004KT 4000 1500SE BR BKN002 01/00 Q1026 RMK REG QNH 1022
LKPR 241330Z 15004KT 4000 BR SCT002 01/01 Q1026 TEMPO BKN002
LKPR 241300Z 15004KT 3200 BR SCT002 BKN003 01/01 Q1026 BECMG 2500 BR
LKPR 241230Z 15004KT 100V180 4500 BR BKN003 01/01 Q1026 NOSIG
LKPR 241200Z 12003KT 090V180 4000 BR BKN003 01/00 Q1027 BECMG 5000 BR
LKPR 241145Z 13004KT 100V190 3500 1100SW R24/P2000N BR FEW002 BKN003 01/01 Q1027 RMK REG QNH 1023
LKPR 241130Z 15003KT 110V200 2200 1000SW R24/P2000N BR BKN002 01/01 Q1027 BECMG 3000 BR
LKPR 241119Z VRB02KT 1600 BR BKN002 01/01 Q1027 RMK REG QNH 1023
LKPR 241100Z 15005KT 110V190 0500 R24/P2000N FZFG BKN002 M00/M00 Q1027 BECMG 2000 BR
LKPR 241030Z 16004KT 0250 R24/0700U FZFG VV001 M01/M01 Q1028 NOSIG
LKPR 241000Z 15003KT 090V180 0200 R24/0400N FZFG VV001 M01/M01 Q1028 NOSIG
LKPR 240930Z 17003KT 150V220 0250 R24/0400N FZFG VV001 M02/M02 Q1028 NOSIG
LKPR 240900Z 17003KT 130V220 0250 R24/0650U FZFG VV001 M02/M03 Q1028 NOSIG
LKPR 240843Z 15005KT 0300 R24/0400D FZFG VV001 M03/M03 Q1028 RMK REG QNH 1024
LKPR 240830Z 15004KT 0600 R24/0600U FZFG VV001 M02/M03 Q1028 NOSIG
LKPR 240805Z 16003KT 0400 R24/P2000N FZFG VV001 M03/M03 Q1028 RMK REG QNH 1024
LKPR 240739Z 19004KT 0400 R24/P2000N FZFG VV001 M03/M03 Q1029 RMK REG QNH 1024
LKPR 240717Z 18007KT 0500 R24/1900N FZFG VV001 M03/M03 Q1029 RMK REG QNH 1024
LKPR 240709Z 18006KT 0600 R24/P2000N FZFG SCT001 M03/M03 Q1029 RMK REG QNH 1024
LKPR 240700Z 18006KT 7000 1400E R24/P2000N VCFG SCT001 M03/M03 Q1029 TEMPO 0700 FZFG BKN001
LKPR 240652Z 17006KT 8000 2000NE FEW001 M03/M03 Q1029 RMK REG QNH 1024
LKPR 240630Z 17004KT 8000 NSC M03/M03 Q1029 NOSIG
LKPR 240600Z 19006KT 9000 NSC M02/M03 Q1028 BECMG 3000 BR SCT002
LKPR 240530Z 22006KT 8000 NSC M02/M03 Q1028 BECMG 3000 BR SCT002
LKPR 240500Z 20006KT 9000 NSC M02/M03 Q1028 BECMG 3000 BR SCT002
LKPR 240430Z 19007KT 9000 NSC M02/M02 Q1028 BECMG 3000 BR SCT002
LKPR 240400Z 19007KT CAVOK M01/M02 Q1028 BECMG 3000 BR SCT002
LKPR 240330Z 21007KT CAVOK M01/M02 Q1028 NOSIG
LKPR 240300Z 21007KT CAVOK M01/M02 Q1029 NOSIG
LKPR 240230Z 21007KT CAVOK M01/M02 Q1029 NOSIG
LKPR 240200Z 21007KT CAVOK M01/M02 Q1029 NOSIG
LKPR 240130Z 21007KT CAVOK M02/M02 Q1029 NOSIG
LKPR 240100Z 21009KT CAVOK M00/M01 Q1029 NOSIG
LKPR 240030Z 20008KT CAVOK M01/M01 Q1030 NOSIG
LKPR 240000Z 22007KT CAVOK M01/M02 Q1030 NOSIG
LKPR 232330Z 22007KT CAVOK M01/M02 Q1030 NOSIG
LKPR 232300Z 22006KT CAVOK 00/M01 Q1030 NOSIG
LKPR 232230Z 22007KT CAVOK 01/M01 Q1030 NOSIG
LKPR 232200Z 23005KT CAVOK 01/M00 Q1030 NOSIG
LKPR 232130Z 22007KT CAVOK 00/M01 Q1030 NOSIG
LKPR 232100Z 21007KT CAVOK 01/M01 Q1030 NOSIG
LKPR 232030Z 20008KT CAVOK 01/M00 Q1029 NOSIG
LKPR 232000Z 20006KT CAVOK 01/M01 Q1029 NOSIG
LKPR 231930Z 21008KT CAVOK 01/M00 Q1029 NOSIG
LKPR 231900Z 22008KT CAVOK 01/M00 Q1029 NOSIG
LKPR 231830Z 26008KT CAVOK 02/M00 Q1029 NOSIG
LKPR 231800Z 24008KT CAVOK 02/M00 Q1029 NOSIG
LKPR 231730Z 23006KT CAVOK 02/M01 Q1029 NOSIG
LKPR 231700Z 25006KT CAVOK 03/00 Q1028 NOSIG
LKPR 231630Z 26009KT CAVOK 02/00 Q1028 NOSIG
LKPR 231600Z 27005KT 9999 FEW040 03/00 Q1028 NOSIG
LKPR 231530Z 27006KT 9999 FEW030 04/01 Q1028 NOSIG
LKPR 231500Z 30007KT 9999 FEW030 05/02 Q1028 NOSIG
LKPR 231430Z 30008KT 9999 FEW028 06/02 Q1027 NOSIG
LKPR 231400Z 29009KT 9999 SCT027 SCT040 07/02 Q1027 NOSIG
LKPR 231330Z 29008KT 9999 FEW027 07/01 Q1027 NOSIG
LKPR 231300Z 29008KT 9999 SCT023 07/02 Q1027 NOSIG
LKPR 231230Z 30009KT 9999 FEW020 BKN046 07/03 Q1026 NOSIG
LKPR 231200Z 30009KT 9999 FEW012 BKN033 07/04 Q1026 NOSIG
LKPR 231130Z 28009KT 9999 FEW012 SCT037 07/05 Q1026 NOSIG
LKPR 231100Z 26009KT 9999 FEW010 BKN036 06/05 Q1026 BECMG TL1200 30010KT
LKPR 231030Z 25011KT 9999 -RA FEW017 SCT021 OVC026 06/04 Q1026 BECMG TL1200 30010KT
LKPR 231017Z 25010KT 9999 -RA FEW016 OVC025 06/04 Q1026 RMK REG QNH 1024
LKPR 231000Z 24009KT 9999 FEW017 BKN030 06/04 Q1026 BECMG FM1030 30010KT
LKPR 230930Z 25010KT 9999 BKN025 OVC036 05/04 Q1026 NOSIG
LKPR 230900Z 24012KT 8000 -RA FEW020 OVC028 05/04 Q1026 NOSIG
LKPR 230845Z 24011KT 9000 -RA OVC029 05/04 Q1026 RMK REG QNH 1023
LKPR 230830Z 23011KT 9000 FEW023 OVC030 05/04 Q1025 TEMPO 4500 -RA BR BKN016
LKPR 230800Z 23012KT 9000 FEW023 OVC025 05/04 Q1025 NOSIG
LKPR 230730Z 24012KT 8000 -RA FEW016 BKN022 OVC036 05/04 Q1025 NOSIG
LKPR 230722Z 24013KT 8000 -RA SCT016 BKN022 OVC040 05/03 Q1025 RMK REG QNH 1023
LKPR 230711Z 24012KT 9000 -RA FEW016 BKN018 OVC025 05/04 Q1025 RMK REG QNH 1023
LKPR 230630Z 24011KT 9999 FEW026 BKN032 05/03 Q1024 NOSIG
LKPR 230600Z 23010KT 9999 FEW026 BKN040 05/03 Q1024 NOSIG
LKPR 230530Z 23010KT 9999 FEW028 BKN043 05/03 Q1024 NOSIG
LKPR 230500Z 23009KT 9999 -RA BKN043 05/03 Q1024 NOSIG
LKPR 230430Z 21009KT 9999 -RA SCT038 05/03 Q1024 NOSIG
LKPR 230400Z 24009KT 9999 -RA BKN038 05/03 Q1024 NOSIG
LKPR 230355Z 23009KT 9999 -RA SCT038 BKN048 05/03 Q1024 RMK REG QNH 1023
LKPR 230330Z 23005KT 9999 BKN045 04/03 Q1024 NOSIG
LKPR 230300Z 23006KT 9999 BKN045 04/03 Q1024 NOSIG
LKPR 230230Z 22008KT 9999 FEW022 SCT048 04/03 Q1024 NOSIG
LKPR 230200Z 22009KT 9999 -RA FEW010 SCT021 BKN045 04/03 Q1024 NOSIG
LKPR 230130Z 23009KT 9999 -RA FEW010 BKN023 BKN038 04/03 Q1024 NOSIG
LKPR 230100Z 22007KT 9999 FEW025 BKN047 04/02 Q1024 NOSIG
LKPR 230030Z 23008KT 9999 FEW025 BKN043 04/03 Q1024 NOSIG
LKPR 230000Z 22009KT 9999 BKN044 04/02 Q1024 NOSIG
LKPR 222330Z 23009KT 9999 BKN044 05/02 Q1025 NOSIG
LKPR 222300Z 23011KT 9999 FEW027 BKN048 05/02 Q1025 NOSIG
LKPR 222230Z 23008KT 9999 FEW029 BKN047 05/02 Q1025 NOSIG
LKPR 222200Z 22010KT 9999 FEW031 BKN043 05/02 Q1025 NOSIG
LKPR 222130Z 22009KT 9999 OVC034 05/02 Q1025 NOSIG
LKPR 222100Z 23008KT 9999 FEW022 BKN033 05/02 Q1025 NOSIG
LKPR 222030Z 24008KT 9999 FEW022 BKN033 05/02 Q1025 NOSIG
LKPR 222000Z 23006KT 9999 SCT022 BKN041 05/02 Q1025 NOSIG
LKPR 221930Z 22006KT 9999 BKN026 BKN039 05/02 Q1025 NOSIG
LKPR 221900Z 22008KT 9999 BKN025 BKN045 05/02 Q1025 NOSIG
LKPR 221830Z 22009KT 9999 FEW025 BKN043 05/02 Q1025 NOSIG
LKPR 221800Z 24008KT 9999 FEW019 BKN025 BKN043 05/02 Q1025 NOSIG
LKPR 221730Z 23012KT 9999 BKN020 BKN043 05/02 Q1025 NOSIG